• Join FlightAware (Why Join?)
  • Login
  • US Flag 
10:06PM EDT


 

Airport Tracker/Info


-or-


 

Live Flight TrackerFlight Track Log ✈ N865JM ✈ 29-Jan-2014 ✈ KIPT - KPBI

Flight Track Log - Related Links

Times and Time Zones

All times are in EST time to prevent confusion due to time zone crossing. See the N865JM flight status page for this flight to view local times or setup timezone preferences in your user account.

Time Position Orientation Groundspeed Altitude Reporting Facility
EST Latitude Longitude Course Direction KTS MPH feet Rate Location/Type
04:00PM 41.2158 -77.0486 180° South 414 476 5,300  Level New York Center
04:01PM 41.1511 -77.0922 207° Southwest 297 342 9,200 3,900 Climbing New York Center
04:02PM 41.0700 -77.0847 176° South 262 302 13,200 3,300 Climbing New York Center
04:03PM 40.6991 -77.0631 180° South  Level Estimated
04:03PM 40.9747 -77.0786 177° South 294 338 15,800  Level New York Center
04:04PM 40.6087 -77.0864 180° South  Level Estimated
04:04PM 40.8689 -77.0689 176° South 348 400 17,000  Level New York Center
04:05PM 40.7567 -77.0614 177° South 392 451 17,000 60 Level New York Center
04:06PM 40.6342 -77.0528 177° South 403 464 17,200 660 Climbing New York Center
04:07PM 40.5219 -77.0453 177° South 408 470 18,400 1,560 Climbing New York Center
04:08PM 40.4139 -77.0383 177° South 419 482 20,300 2,040 Climbing New York Center
04:09PM 40.2956 -77.0303 177° South 424 488 22,500 2,100 Climbing New York Center
04:10PM 40.1731 -77.0219 177° South 434 499 24,600 1,980 Climbing New York Center
04:11PM 40.0544 -77.0167 178° South 434 499 26,500 1,920 Climbing New York Center
04:12PM 39.9339 -77.0086 177° South 434 499 28,500 1,200 Climbing New York Center
04:13PM 39.8136 -76.9981 176° South 439 505 29,000 600 Climbing New York Center
04:14PM 39.6992 -76.9906 177° South 439 505 29,800 900 Climbing New York Center
04:15PM 39.5514 -76.9803 177° South 415 478 31,000 960 Climbing Washington Center
04:16PM 39.4433 -76.9619 173° South 408 470 32,000 1,080 Climbing Washington Center
04:17PM 39.3292 -76.9278 167° South 413 475 33,200 1,080 Climbing Washington Center
04:18PM 39.2189 -76.8936 167° South 413 475 34,200 840 Climbing Washington Center
04:19PM 39.1131 -76.8650 168° South 408 470 35,000 660 Climbing Washington Center
04:20PM 39.0008 -76.8308 167° South 413 475 35,600 540 Climbing Washington Center
04:21PM 38.8928 -76.7997 167° South 413 475 36,100 480 Climbing Washington Center
04:22PM 38.7825 -76.7686 168° South 408 470 36,600 600 Climbing Washington Center
04:23PM 38.6764 -76.7431 169° South 403 464 37,400 600 Climbing Washington Center
04:24PM 38.5764 -76.7283 173° South 387 445 37,900 480 Climbing Washington Center
04:25PM 38.4786 -76.7161 174° South 368 423 38,400 480 Climbing Washington Center
04:26PM 38.3767 -76.7014 174° South 368 423 38,900 300 Climbing Washington Center
04:27PM 38.2767 -76.6867 173° South 368 423 39,000  Climbing Washington Center
04:28PM 38.1706 -76.6719 174° South 368 423 39,000  Level Washington Center
04:29PM 38.0683 -76.6572 174° South 368 423 39,000  Level Washington Center
04:30PM 37.9683 -76.6453 175° South 368 423 39,000 -300 Level Washington Center
04:31PM 37.8683 -76.6308 173° South 368 423 38,500 -540 Descending Washington Center
04:32PM 37.7664 -76.6189 175° South 368 423 38,000 -300 Descending Washington Center
04:33PM 37.6664 -76.6044 173° South 368 423 38,000  Level Washington Center
04:34PM 37.5744 -76.6111 183° South 357 411 38,000  Level Washington Center
04:35PM 37.4908 -76.6361 193° South 329 379 38,000  Level Washington Center
04:36PM 37.4175 -76.6614 195° South 315 362 38,000  Level Washington Center
04:37PM 37.3319 -76.6864 193° South 315 362 38,000  Level Washington Center
04:38PM 37.2461 -76.7164 196° South 320 368 38,000  Level Washington Center
04:39PM 37.1603 -76.7464 196° South 320 368 38,000  Level Washington Center
04:40PM 37.0725 -76.7736 194° South 320 368 38,000  Level Washington Center
04:41PM 36.9867 -76.8008 194° South 320 368 38,000  Level Washington Center
04:42PM 36.8967 -76.8308 195° South 320 368 38,000  Level Washington Center
04:43PM 36.8086 -76.8578 194° South 320 368 38,000  Level Washington Center
04:44PM 36.7208 -76.8875 195° South 320 368 38,000  Level Washington Center
04:45PM 36.6328 -76.9144 194° South 320 368 38,000  Level Washington Center
04:46PM 36.5428 -76.9414 194° South 320 368 38,000  Level Washington Center
04:47PM 36.4528 -76.9736 196° South 326 375 38,000  Level Washington Center
04:48PM 36.3583 -77.0053 195° South 326 375 38,000  Level Washington Center
04:49PM 36.2664 -77.0347 194° South 333 383 38,000  Level Washington Center
04:50PM 36.1764 -77.0614 193° South 338 389 38,000 -60 Level Washington Center
04:51PM 36.0861 -77.0878 193° South 338 389 37,900  Descending Washington Center
04:52PM 35.9961 -77.1169 195° South 338 389 38,000  Climbing Washington Center
04:53PM 35.9103 -77.1411 193° South 330 380 38,000  Level Washington Center
04:54PM 35.8222 -77.1700 195° South 330 380 38,000  Level Washington Center
04:55PM 35.7322 -77.1964 193° South 330 380 38,000  Level Washington Center
04:56PM 35.6378 -77.2278 195° South 335 386 38,000  Level Washington Center
04:57PM 35.5497 -77.2567 195° South 335 386 38,000  Level Washington Center
04:58PM 35.4556 -77.2825 193° South 340 391 38,000  Level Washington Center
04:59PM 35.3675 -77.3114 195° South 340 391 38,000  Level Washington Center
05:00PM 35.2775 -77.3400 195° South 340 391 38,000  Level Washington Center
05:01PM 35.1872 -77.3658 193° South 340 391 38,000  Level Washington Center
05:02PM 35.0931 -77.3944 194° South 340 391 38,000  Level Washington Center
05:03PM 35.0008 -77.4228 194° South 335 386 38,000  Level Washington Center
05:04PM 34.9211 -77.4489 195° South 335 386 38,000  Level Washington Center
05:05PM 34.8161 -77.4819 194° South 342 394 38,000  Level Washington Center
05:06PM 34.7239 -77.5100 194° South 347 399 38,000  Level Washington Center
05:07PM 34.6294 -77.5406 195° South 347 399 38,000  Level Washington Center
05:08PM 34.5353 -77.5686 194° South 347 399 38,000  Level Washington Center
05:09PM 34.4389 -77.5964 193° South 352 405 38,000  Level Washington Center
05:10PM 34.3422 -77.6269 195° South 357 411 38,000  Level Washington Center
05:12PM 34.0986 -77.6967 193° South 356 410 38,000  Level Jacksonville Center
05:13PM 34.0017 -77.7250 194° South 356 410 38,000 -60 Level Jacksonville Center
05:14PM 33.9028 -77.7558 195° South 371 427 37,900  Descending Jacksonville Center
05:16PM 33.8061 -77.7842 194° South 366 421 38,000  Climbing Jacksonville Center
05:17PM 33.7092 -77.8122 194° South 366 421 38,000  Level Jacksonville Center
05:17PM 33.6103 -77.8428 194° South 366 421 38,000 -60 Level Jacksonville Center
05:18PM 33.5153 -77.8706 194° South 366 421 37,900  Descending Jacksonville Center
05:20PM 33.4183 -77.9011 195° South 366 421 38,000  Climbing Jacksonville Center
05:20PM 33.3214 -77.9289 193° South 366 421 38,000  Level Jacksonville Center
05:21PM 33.2267 -77.9564 194° South 361 415 38,000  Level Jacksonville Center
05:23PM 33.1275 -77.9842 193° South 361 415 38,000 -60 Level Jacksonville Center
05:23PM 33.0325 -78.0117 194° South 361 415 37,900  Descending Jacksonville Center
05:25PM 32.9375 -78.0392 194° South 356 410 38,000  Climbing Jacksonville Center
05:25PM 32.8406 -78.0667 193° South 356 410 38,000  Level Jacksonville Center
05:26PM 32.7478 -78.0939 194° South 356 410 38,000  Level Jacksonville Center
05:27PM 32.6508 -78.1261 196° South 356 410 38,000  Level Jacksonville Center
05:28PM 32.5558 -78.1533 194° South 356 410 38,000  Level Jacksonville Center
05:29PM 32.4567 -78.1806 193° South 356 410 38,000  Level Jacksonville Center
05:30PM 32.3617 -78.2053 192° South 356 410 38,000  Level Jacksonville Center
05:31PM 32.2644 -78.2322 193° South 356 410 38,000  Level Jacksonville Center
05:32PM 32.1697 -78.2642 196° South 356 410 38,000  Level Jacksonville Center
05:33PM 32.0725 -78.2936 194° South 356 410 38,000  Level Jacksonville Center
05:34PM 31.9714 -78.3231 194° South 356 410 38,000  Level Jacksonville Center
05:35PM 31.8764 -78.3497 193° South 356 410 38,000  Level Jacksonville Center
05:36PM 31.7833 -78.3739 192° South 356 410 38,000  Level Jacksonville Center
05:38PM 31.6800 -78.4058 195° South 357 411 38,000  Level Jacksonville Center
05:38PM 31.5972 -78.4292 194° South 357 411 38,000  Level Jacksonville Center
05:39PM 31.5022 -78.4558 193° South 357 411 38,000  Level Jacksonville Center
05:40PM 31.4031 -78.4825 193° South 357 411 38,000  Level Jacksonville Center
05:41PM 31.3058 -78.5089 193° South 357 411 38,000  Level Jacksonville Center
05:43PM 31.2128 -78.5325 192° South 357 411 38,000  Level Jacksonville Center
05:43PM 31.1136 -78.5639 195° South 357 411 38,000  Level Jacksonville Center
05:44PM 31.0164 -78.5925 194° South 357 411 38,000  Level Jacksonville Center
05:46PM 30.9169 -78.6164 192° South 356 410 38,000 -60 Level Jacksonville Center
05:46PM 30.8281 -78.6422 194° South 349 402 37,900  Descending Jacksonville Center
05:49PM 30.6186 -78.7039 194° South 340 391 38,000  Climbing Miami Center
05:50PM 30.5244 -78.7358 196° South 345 397 38,000  Level Miami Center
05:51PM 30.4322 -78.7681 197° South 350 403 38,000  Level Miami Center
05:52PM 30.3381 -78.8022 197° South 355 409 38,000  Level Miami Center
05:53PM 30.2458 -78.8367 198° South 360 414 38,000  Level Miami Center
05:54PM 30.1517 -78.8683 196° South 360 414 38,000  Level Miami Center
05:55PM 30.0572 -78.9050 199° South 354 407 38,000  Level Miami Center
05:56PM 29.9714 -78.9322 195° South 349 402 38,000  Level Miami Center
05:57PM 29.8792 -78.9686 199° South 355 409 38,000 -120 Level Miami Center
05:58PM 29.7867 -79.0050 199° South 355 409 37,800 -360 Descending Miami Center
05:59PM 29.6803 -79.0197 187° South 367 422 37,300 -540 Descending Miami Center
06:00PM 29.5756 -79.0367 188° South 374 430 36,800 -540 Descending Miami Center
06:01PM 29.4731 -79.0586 191° South 384 442 36,300 -480 Descending Miami Center
06:02PM 29.3664 -79.0778 189° South 390 449 35,900 -480 Descending Miami Center
06:03PM 29.2619 -79.0947 188° South 390 449 35,400 -720 Descending Miami Center
06:04PM 29.1592 -79.1186 191° South 384 442 34,500 -960 Descending Miami Center
06:05PM 29.0525 -79.1356 188° South 389 448 33,500 -1,020 Descending Miami Center
06:06PM 28.9417 -79.1522 187° South 394 453 32,500 -1,020 Descending Miami Center
06:07PM 28.8308 -79.1714 189° South 394 453 31,500 -1,020 Descending Miami Center
06:08PM 28.7219 -79.1928 190° South 400 460 30,500 -1,020 Descending Miami Center
06:09PM 28.6092 -79.2117 188° South 406 467 29,500 -1,020 Descending Miami Center
06:10PM 28.5003 -79.2331 190° South 411 473 28,500 -1,020 Descending Miami Center
06:11PM 28.3850 -79.2542 189° South 411 473 27,500 -1,080 Descending Miami Center
06:12PM 28.2742 -79.2731 189° South 411 473 26,400 -1,140 Descending Miami Center
06:13PM 28.1631 -79.2942 190° South 411 473 25,300 -1,140 Descending Miami Center
06:14PM 28.0542 -79.3153 190° South 411 473 24,200 -1,320 Descending Miami Center
06:15PM 27.9411 -79.3342 188° South 411 473 22,700 -1,680 Descending Miami Center
06:16PM 27.8364 -79.3506 188° South 375 432 20,900 -1,620 Descending Miami Center
06:17PM 27.7483 -79.3675 190° South 363 418 19,500 -1,500 Descending Miami Center
06:18PM 27.6500 -79.3933 193° South 358 412 18,000 -1,500 Descending Miami Center
06:19PM 27.5650 -79.4664 217° Southwest 346 398 16,500 -1,260 Descending Miami Center
06:20PM 27.4928 -79.5350 220° Southwest 347 399 15,500 -1,200 Descending Miami Center
06:21PM 27.4289 -79.5992 222° Southwest 322 371 14,100 -1,380 Descending Miami Center
06:22PM 27.3736 -79.6492 219° Southwest 306 352 12,800 -1,440 Descending Miami Center
06:23PM 27.3119 -79.7086 221° Southwest 297 342 11,300 -1,500 Descending Miami Center
06:24PM 27.2481 -79.7700 221° Southwest 290 334 9,900 -1,320 Descending Miami Center
06:25PM 27.1906 -79.8269 221° Southwest 290 334 8,700 -1,080 Descending Miami Center
06:26PM 27.1261 -79.8183 173° South 253 291 7,800 -900 Descending Miami Center
06:27PM 27.0897 -79.7497 121° Southeast 236 272 7,000 -960 Descending Miami Center
06:28PM 27.0581 -79.6672 113° Southeast 260 299 5,900 -960 Descending Miami Center
06:29PM 27.0022 -79.6333 152° Southeast 231 266 5,100 -900 Descending Miami Center
06:30PM 26.9333 -79.6342 181° South 224 258 4,100 -600 Descending Miami Center
06:31PM 26.8686 -79.6347 180° South 245 282 4,000 -120 Descending Miami Center
06:33PM 26.8670 -79.8436 270° West  Level FlightAware Approximate
06:40PM 26.6832 -80.0956 110° East  Level Estimated
06:41PM 26.6832 -80.0956 110° East  Level Estimated
06:42PM 26.6832 -80.0956 110° East  Level Estimated
06:43PM 26.6832 -80.0956 110° East  Level Estimated
06:44PM 26.6832 -80.0956 110° East  Level Estimated
06:45PM 26.6832 -80.0956 110° East  Level Estimated
06:46PM 26.6832 -80.0956 110° East  Level Estimated
06:47PM 26.6832 -80.0956 110° East  Level Estimated
06:48PM 26.6832 -80.0956 110° East  Level Estimated